sensor_id;sensor_type;location;lat;lon;timestamp;temperature;humidity
60717;DHT22;46566;52.700;6.192;2022-08-05T00:01:13;20.20;99.90
60717;DHT22;46566;52.700;6.192;2022-08-05T00:03:39;20.10;99.90
60717;DHT22;46566;52.700;6.192;2022-08-05T00:06:05;20.20;99.90
60717;DHT22;46566;52.700;6.192;2022-08-05T00:08:31;20.20;99.90
60717;DHT22;46566;52.700;6.192;2022-08-05T00:10:57;20.10;99.90
60717;DHT22;46566;52.700;6.192;2022-08-05T00:13:23;20.10;99.90
60717;DHT22;46566;52.700;6.192;2022-08-05T00:15:49;20.00;99.90
60717;DHT22;46566;52.700;6.192;2022-08-05T00:18:15;20.00;99.90
60717;DHT22;46566;52.700;6.192;2022-08-05T00:20:40;20.00;99.90
60717;DHT22;46566;52.700;6.192;2022-08-05T00:23:06;19.90;99.90
60717;DHT22;46566;52.700;6.192;2022-08-05T00:25:32;20.00;99.90
60717;DHT22;46566;52.700;6.192;2022-08-05T00:27:58;20.00;99.90
60717;DHT22;46566;52.700;6.192;2022-08-05T00:30:24;20.00;99.90
60717;DHT22;46566;52.700;6.192;2022-08-05T00:32:50;20.00;99.90
60717;DHT22;46566;52.700;6.192;2022-08-05T00:35:16;19.90;99.90
60717;DHT22;46566;52.700;6.192;2022-08-05T00:37:41;19.90;99.90
60717;DHT22;46566;52.700;6.192;2022-08-05T00:40:08;19.80;99.90
60717;DHT22;46566;52.700;6.192;2022-08-05T00:42:36;19.90;99.90
60717;DHT22;46566;52.700;6.192;2022-08-05T00:45:05;19.90;99.90
60717;DHT22;46566;52.700;6.192;2022-08-05T00:47:31;19.90;99.90
60717;DHT22;46566;52.700;6.192;2022-08-05T00:49:57;19.90;99.90
60717;DHT22;46566;52.700;6.192;2022-08-05T00:52:23;19.90;99.90
60717;DHT22;46566;52.700;6.192;2022-08-05T00:54:49;20.00;99.90
60717;DHT22;46566;52.700;6.192;2022-08-05T00:57:15;19.90;99.90
60717;DHT22;46566;52.700;6.192;2022-08-05T00:59:41;19.90;99.90
60717;DHT22;46566;52.700;6.192;2022-08-05T01:02:07;19.80;99.90
60717;DHT22;46566;52.700;6.192;2022-08-05T01:04:32;19.80;99.90
60717;DHT22;46566;52.700;6.192;2022-08-05T01:06:58;19.80;99.90
60717;DHT22;46566;52.700;6.192;2022-08-05T01:09:24;19.80;99.90
60717;DHT22;46566;52.700;6.192;2022-08-05T01:11:52;19.80;99.90
60717;DHT22;46566;52.700;6.192;2022-08-05T01:14:44;19.90;99.90
60717;DHT22;46566;52.700;6.192;2022-08-05T01:17:23;19.80;99.90
60717;DHT22;46566;52.700;6.192;2022-08-05T01:25:28;19.70;99.90
60717;DHT22;46566;52.700;6.192;2022-08-05T01:30:30;19.60;99.90
60717;DHT22;46566;52.700;6.192;2022-08-05T01:32:59;19.60;99.90
60717;DHT22;46566;52.700;6.192;2022-08-05T01:35:30;19.60;99.90
60717;DHT22;46566;52.700;6.192;2022-08-05T01:37:57;19.70;99.90
60717;DHT22;46566;52.700;6.192;2022-08-05T01:40:27;19.70;99.90
60717;DHT22;46566;52.700;6.192;2022-08-05T01:42:55;19.70;99.90
60717;DHT22;46566;52.700;6.192;2022-08-05T01:45:22;19.60;99.90
60717;DHT22;46566;52.700;6.192;2022-08-05T01:47:50;19.60;99.90
60717;DHT22;46566;52.700;6.192;2022-08-05T01:50:24;19.60;99.90
60717;DHT22;46566;52.700;6.192;2022-08-05T01:52:51;19.50;99.90
60717;DHT22;46566;52.700;6.192;2022-08-05T01:55:21;19.60;99.90
60717;DHT22;46566;52.700;6.192;2022-08-05T01:57:50;19.50;99.90
60717;DHT22;46566;52.700;6.192;2022-08-05T02:00:17;19.40;99.90
60717;DHT22;46566;52.700;6.192;2022-08-05T02:03:07;19.40;99.90
60717;DHT22;46566;52.700;6.192;2022-08-05T02:05:35;19.40;99.90
60717;DHT22;46566;52.700;6.192;2022-08-05T02:08:03;19.40;99.90
60717;DHT22;46566;52.700;6.192;2022-08-05T02:10:38;19.50;99.90
60717;DHT22;46566;52.700;6.192;2022-08-05T02:15:35;19.40;99.90
60717;DHT22;46566;52.700;6.192;2022-08-05T02:18:10;19.40;99.90
60717;DHT22;46566;52.700;6.192;2022-08-05T02:20:57;19.30;99.90
60717;DHT22;46566;52.700;6.192;2022-08-05T02:23:29;19.20;99.90
60717;DHT22;46566;52.700;6.192;2022-08-05T02:25:57;19.20;99.90
60717;DHT22;46566;52.700;6.192;2022-08-05T02:28:28;19.30;99.90
60717;DHT22;46566;52.700;6.192;2022-08-05T02:31:08;19.30;99.90
60717;DHT22;46566;52.700;6.192;2022-08-05T02:33:38;19.30;99.90
60717;DHT22;46566;52.700;6.192;2022-08-05T02:36:09;19.30;99.90
60717;DHT22;46566;52.700;6.192;2022-08-05T02:38:36;19.20;99.90
60717;DHT22;46566;52.700;6.192;2022-08-05T02:41:02;19.20;99.90
60717;DHT22;46566;52.700;6.192;2022-08-05T02:43:29;19.30;99.90
60717;DHT22;46566;52.700;6.192;2022-08-05T02:45:56;19.20;99.90
60717;DHT22;46566;52.700;6.192;2022-08-05T02:48:23;19.20;99.90
60717;DHT22;46566;52.700;6.192;2022-08-05T02:50:51;19.20;99.90
60717;DHT22;46566;52.700;6.192;2022-08-05T02:53:17;19.00;99.90
60717;DHT22;46566;52.700;6.192;2022-08-05T02:55:50;19.00;99.90
60717;DHT22;46566;52.700;6.192;2022-08-05T02:58:20;19.10;99.90
60717;DHT22;46566;52.700;6.192;2022-08-05T03:00:47;19.00;99.90
60717;DHT22;46566;52.700;6.192;2022-08-05T03:03:18;19.00;99.90
60717;DHT22;46566;52.700;6.192;2022-08-05T03:05:45;19.00;99.90
60717;DHT22;46566;52.700;6.192;2022-08-05T03:08:12;19.00;99.90
60717;DHT22;46566;52.700;6.192;2022-08-05T03:10:42;19.00;99.90
60717;DHT22;46566;52.700;6.192;2022-08-05T03:13:15;19.00;99.90
60717;DHT22;46566;52.700;6.192;2022-08-05T03:15:45;19.00;99.90
60717;DHT22;46566;52.700;6.192;2022-08-05T03:18:12;18.90;99.90
60717;DHT22;46566;52.700;6.192;2022-08-05T03:20:38;19.00;99.90
60717;DHT22;46566;52.700;6.192;2022-08-05T03:23:05;19.00;99.90
60717;DHT22;46566;52.700;6.192;2022-08-05T03:25:33;19.00;99.90
60717;DHT22;46566;52.700;6.192;2022-08-05T03:27:59;18.90;99.90
60717;DHT22;46566;52.700;6.192;2022-08-05T03:30:27;18.90;99.90
60717;DHT22;46566;52.700;6.192;2022-08-05T03:32:53;18.80;99.90
60717;DHT22;46566;52.700;6.192;2022-08-05T03:35:20;18.80;99.90
60717;DHT22;46566;52.700;6.192;2022-08-05T03:37:46;18.70;99.90
60717;DHT22;46566;52.700;6.192;2022-08-05T03:40:13;18.80;99.90
60717;DHT22;46566;52.700;6.192;2022-08-05T03:42:39;18.80;99.90
60717;DHT22;46566;52.700;6.192;2022-08-05T03:45:06;18.70;99.90
60717;DHT22;46566;52.700;6.192;2022-08-05T03:47:32;18.70;99.90
60717;DHT22;46566;52.700;6.192;2022-08-05T03:49:58;18.70;99.90
60717;DHT22;46566;52.700;6.192;2022-08-05T03:52:28;18.80;99.90
60717;DHT22;46566;52.700;6.192;2022-08-05T03:55:02;18.60;99.90
60717;DHT22;46566;52.700;6.192;2022-08-05T03:57:30;18.60;99.90
60717;DHT22;46566;52.700;6.192;2022-08-05T04:00:07;18.60;99.90
60717;DHT22;46566;52.700;6.192;2022-08-05T04:02:42;18.80;99.90
60717;DHT22;46566;52.700;6.192;2022-08-05T04:05:09;18.70;99.90
60717;DHT22;46566;52.700;6.192;2022-08-05T04:07:40;18.70;99.90
60717;DHT22;46566;52.700;6.192;2022-08-05T04:10:07;18.70;99.90
60717;DHT22;46566;52.700;6.192;2022-08-05T04:12:34;18.60;99.90
60717;DHT22;46566;52.700;6.192;2022-08-05T04:15:00;18.60;99.90
60717;DHT22;46566;52.700;6.192;2022-08-05T04:17:26;18.60;99.90
60717;DHT22;46566;52.700;6.192;2022-08-05T04:19:52;18.70;99.90
60717;DHT22;46566;52.700;6.192;2022-08-05T04:22:18;18.70;99.90
60717;DHT22;46566;52.700;6.192;2022-08-05T04:24:45;18.70;99.90
60717;DHT22;46566;52.700;6.192;2022-08-05T04:27:14;18.70;99.90
60717;DHT22;46566;52.700;6.192;2022-08-05T04:29:40;18.60;99.90
60717;DHT22;46566;52.700;6.192;2022-08-05T04:32:07;18.70;99.90
60717;DHT22;46566;52.700;6.192;2022-08-05T04:34:33;18.70;99.90
60717;DHT22;46566;52.700;6.192;2022-08-05T04:36:59;18.60;99.90
60717;DHT22;46566;52.700;6.192;2022-08-05T04:39:25;18.70;99.90
60717;DHT22;46566;52.700;6.192;2022-08-05T04:41:51;18.60;99.90
60717;DHT22;46566;52.700;6.192;2022-08-05T04:44:18;18.70;99.90
60717;DHT22;46566;52.700;6.192;2022-08-05T04:46:43;18.70;99.90
60717;DHT22;46566;52.700;6.192;2022-08-05T04:49:09;18.60;99.90
60717;DHT22;46566;52.700;6.192;2022-08-05T04:51:35;18.40;99.90
60717;DHT22;46566;52.700;6.192;2022-08-05T04:54:01;18.30;99.90
60717;DHT22;46566;52.700;6.192;2022-08-05T04:56:26;18.40;99.90
60717;DHT22;46566;52.700;6.192;2022-08-05T04:58:55;18.30;99.90
60717;DHT22;46566;52.700;6.192;2022-08-05T05:01:21;18.30;99.90
60717;DHT22;46566;52.700;6.192;2022-08-05T05:03:47;18.20;99.90
60717;DHT22;46566;52.700;6.192;2022-08-05T05:06:13;18.10;99.90
60717;DHT22;46566;52.700;6.192;2022-08-05T05:08:39;18.20;99.90
60717;DHT22;46566;52.700;6.192;2022-08-05T05:11:05;18.20;99.90
60717;DHT22;46566;52.700;6.192;2022-08-05T05:13:31;18.00;99.90
60717;DHT22;46566;52.700;6.192;2022-08-05T05:15:57;18.20;99.90
60717;DHT22;46566;52.700;6.192;2022-08-05T05:18:23;18.10;99.90
60717;DHT22;46566;52.700;6.192;2022-08-05T05:20:49;18.10;99.90
60717;DHT22;46566;52.700;6.192;2022-08-05T05:23:15;18.00;99.90
60717;DHT22;46566;52.700;6.192;2022-08-05T05:25:42;18.10;99.90
60717;DHT22;46566;52.700;6.192;2022-08-05T05:28:09;18.10;99.90
60717;DHT22;46566;52.700;6.192;2022-08-05T05:30:36;17.90;99.90
60717;DHT22;46566;52.700;6.192;2022-08-05T05:33:03;17.90;99.90
60717;DHT22;46566;52.700;6.192;2022-08-05T05:35:31;17.90;99.90
60717;DHT22;46566;52.700;6.192;2022-08-05T05:37:57;17.90;99.90
60717;DHT22;46566;52.700;6.192;2022-08-05T05:40:29;17.90;99.90
60717;DHT22;46566;52.700;6.192;2022-08-05T05:42:55;17.80;99.90
60717;DHT22;46566;52.700;6.192;2022-08-05T05:45:21;17.80;99.90
60717;DHT22;46566;52.700;6.192;2022-08-05T05:47:47;17.70;99.90
60717;DHT22;46566;52.700;6.192;2022-08-05T05:50:16;17.80;99.90
60717;DHT22;46566;52.700;6.192;2022-08-05T05:52:42;17.80;99.90
60717;DHT22;46566;52.700;6.192;2022-08-05T05:55:10;17.80;99.90
60717;DHT22;46566;52.700;6.192;2022-08-05T05:57:37;17.60;99.90
60717;DHT22;46566;52.700;6.192;2022-08-05T06:00:05;17.80;99.90
60717;DHT22;46566;52.700;6.192;2022-08-05T06:02:37;17.70;99.90
60717;DHT22;46566;52.700;6.192;2022-08-05T06:05:08;17.80;99.90
60717;DHT22;46566;52.700;6.192;2022-08-05T06:07:34;17.70;99.90
60717;DHT22;46566;52.700;6.192;2022-08-05T06:09:59;17.90;99.90
60717;DHT22;46566;52.700;6.192;2022-08-05T06:12:25;17.80;99.90
60717;DHT22;46566;52.700;6.192;2022-08-05T06:14:51;17.80;99.90
60717;DHT22;46566;52.700;6.192;2022-08-05T06:17:17;17.80;99.90
60717;DHT22;46566;52.700;6.192;2022-08-05T06:19:43;17.80;99.90
60717;DHT22;46566;52.700;6.192;2022-08-05T06:22:09;17.70;99.90
60717;DHT22;46566;52.700;6.192;2022-08-05T06:24:40;17.80;99.90
60717;DHT22;46566;52.700;6.192;2022-08-05T06:27:07;17.80;99.90
60717;DHT22;46566;52.700;6.192;2022-08-05T06:29:33;17.80;99.90
60717;DHT22;46566;52.700;6.192;2022-08-05T06:32:00;17.90;99.90
60717;DHT22;46566;52.700;6.192;2022-08-05T06:34:26;18.00;99.90
60717;DHT22;46566;52.700;6.192;2022-08-05T06:36:52;18.10;99.90
60717;DHT22;46566;52.700;6.192;2022-08-05T06:39:17;18.10;99.90
60717;DHT22;46566;52.700;6.192;2022-08-05T06:41:43;18.20;99.90
60717;DHT22;46566;52.700;6.192;2022-08-05T06:44:11;18.10;99.90
60717;DHT22;46566;52.700;6.192;2022-08-05T06:46:37;18.10;99.90
60717;DHT22;46566;52.700;6.192;2022-08-05T06:49:03;18.30;99.90
60717;DHT22;46566;52.700;6.192;2022-08-05T06:51:29;18.30;99.90
60717;DHT22;46566;52.700;6.192;2022-08-05T06:53:56;18.30;99.90
60717;DHT22;46566;52.700;6.192;2022-08-05T06:56:22;18.50;99.90
60717;DHT22;46566;52.700;6.192;2022-08-05T06:58:48;18.60;99.90
60717;DHT22;46566;52.700;6.192;2022-08-05T07:01:13;18.70;99.90
60717;DHT22;46566;52.700;6.192;2022-08-05T07:03:39;18.90;99.90
60717;DHT22;46566;52.700;6.192;2022-08-05T07:06:05;19.00;99.90
60717;DHT22;46566;52.700;6.192;2022-08-05T07:08:31;19.00;99.90
60717;DHT22;46566;52.700;6.192;2022-08-05T07:10:57;19.20;99.90
60717;DHT22;46566;52.700;6.192;2022-08-05T07:13:23;19.20;99.90
60717;DHT22;46566;52.700;6.192;2022-08-05T07:16:07;19.40;99.90
60717;DHT22;46566;52.700;6.192;2022-08-05T07:18:52;19.50;99.90
60717;DHT22;46566;52.700;6.192;2022-08-05T07:24:29;19.50;99.90
60717;DHT22;46566;52.700;6.192;2022-08-05T07:32:53;19.70;99.90
60717;DHT22;46566;52.700;6.192;2022-08-05T07:35:19;19.60;99.90
60717;DHT22;46566;52.700;6.192;2022-08-05T07:37:45;19.70;99.90
60717;DHT22;46566;52.700;6.192;2022-08-05T07:40:11;19.80;99.90
60717;DHT22;46566;52.700;6.192;2022-08-05T07:42:37;19.70;99.90
60717;DHT22;46566;52.700;6.192;2022-08-05T07:47:50;19.70;99.90
60717;DHT22;46566;52.700;6.192;2022-08-05T07:50:17;19.80;99.90
60717;DHT22;46566;52.700;6.192;2022-08-05T07:52:44;19.80;99.90
60717;DHT22;46566;52.700;6.192;2022-08-05T07:58:08;20.00;99.90
60717;DHT22;46566;52.700;6.192;2022-08-05T08:00:34;20.00;99.90
60717;DHT22;46566;52.700;6.192;2022-08-05T08:06:11;20.10;99.90
60717;DHT22;46566;52.700;6.192;2022-08-05T08:09:02;20.10;99.90
60717;DHT22;46566;52.700;6.192;2022-08-05T08:17:26;21.20;99.90
60717;DHT22;46566;52.700;6.192;2022-08-05T08:22:52;23.90;99.90
60717;DHT22;46566;52.700;6.192;2022-08-05T08:25:19;25.10;99.30
60717;DHT22;46566;52.700;6.192;2022-08-05T08:30:30;26.80;74.30
60717;DHT22;46566;52.700;6.192;2022-08-05T08:35:59;27.50;75.90
60717;DHT22;46566;52.700;6.192;2022-08-05T08:44:10;25.90;72.40
60717;DHT22;46566;52.700;6.192;2022-08-05T08:46:37;26.30;69.30
60717;DHT22;46566;52.700;6.192;2022-08-05T08:49:04;26.80;69.20
60717;DHT22;46566;52.700;6.192;2022-08-05T08:54:18;28.10;64.30
60717;DHT22;46566;52.700;6.192;2022-08-05T08:59:48;28.60;58.70
60717;DHT22;46566;52.700;6.192;2022-08-05T09:02:14;28.20;64.80
60717;DHT22;46566;52.700;6.192;2022-08-05T09:04:41;28.30;64.70
60717;DHT22;46566;52.700;6.192;2022-08-05T09:07:34;28.70;57.10
60717;DHT22;46566;52.700;6.192;2022-08-05T09:10:00;29.20;58.70
60717;DHT22;46566;52.700;6.192;2022-08-05T09:12:26;29.10;54.30
60717;DHT22;46566;52.700;6.192;2022-08-05T09:14:52;28.80;55.40
60717;DHT22;46566;52.700;6.192;2022-08-05T09:17:43;29.10;54.30
60717;DHT22;46566;52.700;6.192;2022-08-05T09:20:10;29.70;54.20
60717;DHT22;46566;52.700;6.192;2022-08-05T09:23:13;29.90;50.90
60717;DHT22;46566;52.700;6.192;2022-08-05T09:25:43;30.10;54.30
60717;DHT22;46566;52.700;6.192;2022-08-05T09:28:14;30.30;53.10
60717;DHT22;46566;52.700;6.192;2022-08-05T09:36:06;30.30;48.70
60717;DHT22;46566;52.700;6.192;2022-08-05T09:38:32;30.10;50.20
60717;DHT22;46566;52.700;6.192;2022-08-05T09:44:02;29.50;46.50
60717;DHT22;46566;52.700;6.192;2022-08-05T09:49:23;28.90;48.90
60717;DHT22;46566;52.700;6.192;2022-08-05T09:51:49;28.80;51.60
60717;DHT22;46566;52.700;6.192;2022-08-05T09:54:15;28.60;51.70
60717;DHT22;46566;52.700;6.192;2022-08-05T09:56:42;28.60;51.40
60717;DHT22;46566;52.700;6.192;2022-08-05T09:59:26;28.60;53.70
60717;DHT22;46566;52.700;6.192;2022-08-05T10:01:52;28.40;52.10
60717;DHT22;46566;52.700;6.192;2022-08-05T10:04:17;28.20;48.50
60717;DHT22;46566;52.700;6.192;2022-08-05T10:07:11;27.90;47.60
60717;DHT22;46566;52.700;6.192;2022-08-05T10:09:37;27.40;48.30
60717;DHT22;46566;52.700;6.192;2022-08-05T10:12:09;27.10;48.20
60717;DHT22;46566;52.700;6.192;2022-08-05T10:14:35;26.80;47.60
60717;DHT22;46566;52.700;6.192;2022-08-05T10:19:55;26.40;48.30
60717;DHT22;46566;52.700;6.192;2022-08-05T10:22:20;26.30;48.60
60717;DHT22;46566;52.700;6.192;2022-08-05T10:24:46;26.40;50.20
60717;DHT22;46566;52.700;6.192;2022-08-05T10:30:08;26.60;48.50
60717;DHT22;46566;52.700;6.192;2022-08-05T10:32:34;26.70;47.50
60717;DHT22;46566;52.700;6.192;2022-08-05T10:35:18;26.80;49.00
60717;DHT22;46566;52.700;6.192;2022-08-05T10:37:45;26.80;45.00
60717;DHT22;46566;52.700;6.192;2022-08-05T10:40:24;26.70;47.10
60717;DHT22;46566;52.700;6.192;2022-08-05T10:43:18;26.60;45.30
60717;DHT22;46566;52.700;6.192;2022-08-05T10:46:00;26.50;44.20
60717;DHT22;46566;52.700;6.192;2022-08-05T10:51:44;26.60;45.10
60717;DHT22;46566;52.700;6.192;2022-08-05T10:57:25;26.70;43.90
60717;DHT22;46566;52.700;6.192;2022-08-05T11:05:24;26.90;44.70
60717;DHT22;46566;52.700;6.192;2022-08-05T11:10:45;27.00;44.10
60717;DHT22;46566;52.700;6.192;2022-08-05T11:13:38;26.80;42.20
60717;DHT22;46566;52.700;6.192;2022-08-05T11:16:23;26.70;42.90
60717;DHT22;46566;52.700;6.192;2022-08-05T11:19:24;26.80;43.60
60717;DHT22;46566;52.700;6.192;2022-08-05T11:36:19;25.70;45.70
60717;DHT22;46566;52.700;6.192;2022-08-05T11:41:21;25.50;44.60
60717;DHT22;46566;52.700;6.192;2022-08-05T11:44:13;25.50;46.30
60717;DHT22;46566;52.700;6.192;2022-08-05T11:46:42;25.50;46.50
60717;DHT22;46566;52.700;6.192;2022-08-05T11:49:14;25.60;47.00
60717;DHT22;46566;52.700;6.192;2022-08-05T11:54:28;25.50;47.20
60717;DHT22;46566;52.700;6.192;2022-08-05T11:56:55;25.50;49.10
60717;DHT22;46566;52.700;6.192;2022-08-05T11:59:24;25.60;48.90
60717;DHT22;46566;52.700;6.192;2022-08-05T12:04:53;25.70;45.90
60717;DHT22;46566;52.700;6.192;2022-08-05T12:07:19;25.60;47.30
60717;DHT22;46566;52.700;6.192;2022-08-05T12:12:34;25.20;48.30
60717;DHT22;46566;52.700;6.192;2022-08-05T12:15:02;25.00;48.80
60717;DHT22;46566;52.700;6.192;2022-08-05T12:20:34;24.70;48.20
60717;DHT22;46566;52.700;6.192;2022-08-05T12:23:28;24.50;47.40
60717;DHT22;46566;52.700;6.192;2022-08-05T12:25:56;24.40;50.50
60717;DHT22;46566;52.700;6.192;2022-08-05T12:28:34;24.20;50.60
60717;DHT22;46566;52.700;6.192;2022-08-05T12:31:01;24.00;51.80
60717;DHT22;46566;52.700;6.192;2022-08-05T12:33:53;23.90;52.20
60717;DHT22;46566;52.700;6.192;2022-08-05T12:36:21;23.70;53.10
60717;DHT22;46566;52.700;6.192;2022-08-05T12:38:47;23.60;52.80
60717;DHT22;46566;52.700;6.192;2022-08-05T12:44:01;23.50;52.10
60717;DHT22;46566;52.700;6.192;2022-08-05T12:46:29;23.50;53.10
60717;DHT22;46566;52.700;6.192;2022-08-05T12:49:21;23.50;53.90
60717;DHT22;46566;52.700;6.192;2022-08-05T12:51:50;23.50;54.40
60717;DHT22;46566;52.700;6.192;2022-08-05T12:54:27;23.60;53.60
60717;DHT22;46566;52.700;6.192;2022-08-05T12:57:15;23.60;52.40
60717;DHT22;46566;52.700;6.192;2022-08-05T13:02:12;23.50;51.70
60717;DHT22;46566;52.700;6.192;2022-08-05T13:04:42;23.50;52.50
60717;DHT22;46566;52.700;6.192;2022-08-05T13:07:33;23.50;53.20
60717;DHT22;46566;52.700;6.192;2022-08-05T13:09:58;23.60;53.80
60717;DHT22;46566;52.700;6.192;2022-08-05T13:12:25;23.60;54.50
60717;DHT22;46566;52.700;6.192;2022-08-05T13:17:54;23.50;53.70
60717;DHT22;46566;52.700;6.192;2022-08-05T13:20:20;23.30;54.00
60717;DHT22;46566;52.700;6.192;2022-08-05T13:25:41;23.00;55.60
60717;DHT22;46566;52.700;6.192;2022-08-05T13:28:07;22.90;55.30
60717;DHT22;46566;52.700;6.192;2022-08-05T13:30:33;22.90;56.20
60717;DHT22;46566;52.700;6.192;2022-08-05T13:33:17;22.70;55.50
60717;DHT22;46566;52.700;6.192;2022-08-05T13:35:42;22.50;55.50
60717;DHT22;46566;52.700;6.192;2022-08-05T13:38:08;22.40;56.00
60717;DHT22;46566;52.700;6.192;2022-08-05T13:40:34;22.40;56.80
60717;DHT22;46566;52.700;6.192;2022-08-05T13:43:00;22.30;57.70
60717;DHT22;46566;52.700;6.192;2022-08-05T13:45:51;22.30;57.10
60717;DHT22;46566;52.700;6.192;2022-08-05T13:48:17;22.30;57.30
60717;DHT22;46566;52.700;6.192;2022-08-05T13:50:42;22.40;56.60
60717;DHT22;46566;52.700;6.192;2022-08-05T13:53:08;22.40;55.80
60717;DHT22;46566;52.700;6.192;2022-08-05T13:55:48;22.50;56.30
60717;DHT22;46566;52.700;6.192;2022-08-05T13:58:14;22.60;56.80
60717;DHT22;46566;52.700;6.192;2022-08-05T14:00:40;22.80;56.30
60717;DHT22;46566;52.700;6.192;2022-08-05T14:03:06;22.90;56.30
60717;DHT22;46566;52.700;6.192;2022-08-05T14:05:31;22.90;54.60
60717;DHT22;46566;52.700;6.192;2022-08-05T14:11:08;22.80;54.80
60717;DHT22;46566;52.700;6.192;2022-08-05T14:16:28;22.60;57.50
60717;DHT22;46566;52.700;6.192;2022-08-05T14:18:54;22.50;58.50
60717;DHT22;46566;52.700;6.192;2022-08-05T14:21:20;22.50;58.10
60717;DHT22;46566;52.700;6.192;2022-08-05T14:26:57;22.60;58.80
60717;DHT22;46566;52.700;6.192;2022-08-05T14:32:10;22.80;57.60
60717;DHT22;46566;52.700;6.192;2022-08-05T14:34:36;23.00;56.10
60717;DHT22;46566;52.700;6.192;2022-08-05T14:37:05;23.10;56.10
60717;DHT22;46566;52.700;6.192;2022-08-05T14:42:26;23.10;54.60
60717;DHT22;46566;52.700;6.192;2022-08-05T14:44:52;23.00;55.00
60717;DHT22;46566;52.700;6.192;2022-08-05T14:47:18;23.00;55.20
60717;DHT22;46566;52.700;6.192;2022-08-05T14:50:09;23.00;55.50
60717;DHT22;46566;52.700;6.192;2022-08-05T14:52:35;23.10;56.00
60717;DHT22;46566;52.700;6.192;2022-08-05T14:55:01;23.40;55.30
60717;DHT22;46566;52.700;6.192;2022-08-05T14:57:26;23.60;53.80
60717;DHT22;46566;52.700;6.192;2022-08-05T15:00:17;23.80;53.60
60717;DHT22;46566;52.700;6.192;2022-08-05T15:02:43;23.80;54.00
60717;DHT22;46566;52.700;6.192;2022-08-05T15:05:09;23.90;53.80
60717;DHT22;46566;52.700;6.192;2022-08-05T15:07:35;24.00;52.90
60717;DHT22;46566;52.700;6.192;2022-08-05T15:10:11;23.90;52.70
60717;DHT22;46566;52.700;6.192;2022-08-05T15:12:37;23.80;51.90
60717;DHT22;46566;52.700;6.192;2022-08-05T15:15:04;23.80;52.00
60717;DHT22;46566;52.700;6.192;2022-08-05T15:17:29;23.90;51.10
60717;DHT22;46566;52.700;6.192;2022-08-05T15:19:55;23.80;51.70
60717;DHT22;46566;52.700;6.192;2022-08-05T15:25:02;23.50;51.90
60717;DHT22;46566;52.700;6.192;2022-08-05T15:27:28;23.30;51.20
60717;DHT22;46566;52.700;6.192;2022-08-05T15:29:54;23.20;51.70
60717;DHT22;46566;52.700;6.192;2022-08-05T15:32:20;23.00;52.60
60717;DHT22;46566;52.700;6.192;2022-08-05T15:35:11;23.00;53.40
60717;DHT22;46566;52.700;6.192;2022-08-05T15:37:37;22.90;53.40
60717;DHT22;46566;52.700;6.192;2022-08-05T15:40:03;22.70;53.00
60717;DHT22;46566;52.700;6.192;2022-08-05T15:42:29;22.60;52.90
60717;DHT22;46566;52.700;6.192;2022-08-05T15:47:53;22.40;54.70
60717;DHT22;46566;52.700;6.192;2022-08-05T15:53:08;22.30;55.50
60717;DHT22;46566;52.700;6.192;2022-08-05T15:55:34;22.40;56.10
60717;DHT22;46566;52.700;6.192;2022-08-05T15:58:03;22.20;55.60
60717;DHT22;46566;52.700;6.192;2022-08-05T16:00:29;22.10;56.00
60717;DHT22;46566;52.700;6.192;2022-08-05T16:03:20;22.00;56.30
60717;DHT22;46566;52.700;6.192;2022-08-05T16:05:46;21.90;56.50
60717;DHT22;46566;52.700;6.192;2022-08-05T16:08:12;21.80;56.90
60717;DHT22;46566;52.700;6.192;2022-08-05T16:10:37;21.70;57.20
60717;DHT22;46566;52.700;6.192;2022-08-05T16:13:28;21.60;57.50
60717;DHT22;46566;52.700;6.192;2022-08-05T16:15:54;21.60;57.80
60717;DHT22;46566;52.700;6.192;2022-08-05T16:18:20;21.60;58.70
60717;DHT22;46566;52.700;6.192;2022-08-05T16:20:45;21.60;58.00
60717;DHT22;46566;52.700;6.192;2022-08-05T16:23:36;21.50;57.90
60717;DHT22;46566;52.700;6.192;2022-08-05T16:26:06;21.50;58.50
60717;DHT22;46566;52.700;6.192;2022-08-05T16:28:33;21.50;58.80
60717;DHT22;46566;52.700;6.192;2022-08-05T16:31:17;21.50;57.80
60717;DHT22;46566;52.700;6.192;2022-08-05T16:33:43;21.50;58.40
60717;DHT22;46566;52.700;6.192;2022-08-05T16:36:10;21.50;58.60
60717;DHT22;46566;52.700;6.192;2022-08-05T16:38:36;21.50;58.20
60717;DHT22;46566;52.700;6.192;2022-08-05T16:41:02;21.40;58.10
60717;DHT22;46566;52.700;6.192;2022-08-05T16:46:23;21.30;58.20
60717;DHT22;46566;52.700;6.192;2022-08-05T16:48:49;21.20;57.80
60717;DHT22;46566;52.700;6.192;2022-08-05T16:51:41;21.20;57.80
60717;DHT22;46566;52.700;6.192;2022-08-05T16:54:07;21.10;58.00
60717;DHT22;46566;52.700;6.192;2022-08-05T16:56:33;21.00;58.00
60717;DHT22;46566;52.700;6.192;2022-08-05T16:59:05;21.00;57.10
60717;DHT22;46566;52.700;6.192;2022-08-05T17:01:40;20.90;57.10
60717;DHT22;46566;52.700;6.192;2022-08-05T17:04:06;20.90;57.60
60717;DHT22;46566;52.700;6.192;2022-08-05T17:06:32;20.90;58.50
60717;DHT22;46566;52.700;6.192;2022-08-05T17:08:58;20.90;58.90
60717;DHT22;46566;52.700;6.192;2022-08-05T17:11:24;20.80;59.00
60717;DHT22;46566;52.700;6.192;2022-08-05T17:14:15;20.80;59.50
60717;DHT22;46566;52.700;6.192;2022-08-05T17:16:41;20.80;60.10
60717;DHT22;46566;52.700;6.192;2022-08-05T17:19:07;20.70;60.50
60717;DHT22;46566;52.700;6.192;2022-08-05T17:21:33;20.70;61.20
60717;DHT22;46566;52.700;6.192;2022-08-05T17:24:24;20.70;61.90
60717;DHT22;46566;52.700;6.192;2022-08-05T17:26:50;20.70;62.20
60717;DHT22;46566;52.700;6.192;2022-08-05T17:29:16;20.70;62.80
60717;DHT22;46566;52.700;6.192;2022-08-05T17:31:43;20.70;62.80
60717;DHT22;46566;52.700;6.192;2022-08-05T17:34:21;20.70;63.20
60717;DHT22;46566;52.700;6.192;2022-08-05T17:36:46;20.80;63.10
60717;DHT22;46566;52.700;6.192;2022-08-05T17:39:15;20.80;63.10
60717;DHT22;46566;52.700;6.192;2022-08-05T17:41:40;20.70;63.20
60717;DHT22;46566;52.700;6.192;2022-08-05T17:44:06;20.70;63.50
60717;DHT22;46566;52.700;6.192;2022-08-05T17:46:58;20.70;63.80
60717;DHT22;46566;52.700;6.192;2022-08-05T17:49:26;20.60;63.00
60717;DHT22;46566;52.700;6.192;2022-08-05T17:51:52;20.50;63.90
60717;DHT22;46566;52.700;6.192;2022-08-05T17:54:18;20.50;64.70
60717;DHT22;46566;52.700;6.192;2022-08-05T17:56:56;20.50;66.40
60717;DHT22;46566;52.700;6.192;2022-08-05T17:59:22;20.50;67.00
60717;DHT22;46566;52.700;6.192;2022-08-05T18:01:47;20.50;67.40
60717;DHT22;46566;52.700;6.192;2022-08-05T18:04:13;20.40;68.00
60717;DHT22;46566;52.700;6.192;2022-08-05T18:06:39;20.30;68.40
60717;DHT22;46566;52.700;6.192;2022-08-05T18:15:07;20.00;70.50
60717;DHT22;46566;52.700;6.192;2022-08-05T18:17:33;19.90;72.10
60717;DHT22;46566;52.700;6.192;2022-08-05T18:20:00;19.90;74.10
60717;DHT22;46566;52.700;6.192;2022-08-05T18:22:26;19.80;75.20